Terminal Aerodrome Forecast
Issued by NWS Portland, OR

Home | Current Version | Previous Version | Text Only | Print | Product List | Glossary On
Versions: 1 2 3 4 5 6 7 8 9 10 11 12 13 14 15 16 17 18 19 20 21 22 23 24 25 26 27 28 29 30 31 32 33 34 35 36 37
147
FTUS46 KPQR 192339
TAFEUG
TAF
KEUG 192339Z 2000/2024 23014G22KT P6SM SCT025 OVC050
     FM200300 19008KT P6SM SCT025 OVC060
     FM200600 12009KT P6SM -RA BKN050 OVC080
     FM201500 16011KT P6SM -RA OVC050
     FM201700 19017G24KT P6SM -RA OVC030=

USA.gov is the U.S. government's official web portal to all federal, state and local government web resources and services.